Time;durP1;ratioP1;P1;durP2;ratioP2;P2;SDS_P1;SDS_P2;PMS_P1;PMS_P2;Temp;Humidity;BMP_temperature;BMP_pressure;BME280_temperature;BME280_humidity;BME280_pressure;Samples;Min_cycle;Max_cycle;Signal;HPM_P1;HPM_P2
2023/07/05 00:00:44;;;;;;;11.63;6.35;;;;;;;27.09;54.97;98641.09;2061836;28;20491;-51
2023/07/05 00:01:45;;;;;;;9.23;4.97;;;;;;;27.09;55.03;98640.28;2062588;28;20049;-54
2023/07/05 00:02:50;;;;;;;9.43;4.78;;;;;;;27.09;55.11;98640.28;2061258;28;20080;-49
2023/07/05 00:03:51;;;;;;;9.65;5.38;;;;;;;27.07;54.86;98637.81;2064427;28;20045;-54
2023/07/05 00:04:52;;;;;;;9.35;4.72;;;;;;;27.07;54.92;98637.81;2061805;28;20049;-54
2023/07/05 00:05:54;;;;;;;10.20;5.82;;;;;;;27.08;54.85;98639.47;2065011;28;20401;-49
2023/07/05 00:06:55;;;;;;;7.25;4.97;;;;;;;27.10;55.09;98640.00;2060677;28;20049;-52
2023/07/05 00:07:58;;;;;;;10.38;5.57;;;;;;;27.11;54.66;98622.59;2059822;28;20144;-51
2023/07/05 00:08:59;;;;;;;7.88;4.68;;;;;;;27.10;55.11;98639.19;2063370;28;20061;-50
2023/07/05 00:10:01;;;;;;;9.77;5.95;;;;;;;27.10;54.81;98641.91;2062623;28;20508;-47
2023/07/05 00:11:03;;;;;;;8.27;5.35;;;;;;;27.09;55.11;98638.38;2063405;28;20092;-51
2023/07/05 00:12:05;;;;;;;10.57;5.15;;;;;;;27.06;55.24;98643.53;2063793;28;20042;-54
2023/07/05 00:13:06;;;;;;;8.45;4.60;;;;;;;27.02;55.38;98639.66;2063463;28;20064;-53
2023/07/05 00:14:08;;;;;;;6.95;5.15;;;;;;;27.00;55.54;98642.66;2063324;28;20065;-46
2023/07/05 00:15:09;;;;;;;6.45;5.30;;;;;;;27.04;55.84;98637.50;2062258;28;20057;-51
2023/07/05 00:16:13;;;;;;;10.88;5.82;;;;;;;27.06;55.66;98646.25;2062532;28;20053;-46
2023/07/05 00:17:14;;;;;;;9.45;6.10;;;;;;;27.02;55.57;98639.66;2062065;28;20045;-53
2023/07/05 00:18:16;;;;;;;8.93;4.95;;;;;;;26.95;55.89;98635.25;2064176;28;20137;-52
2023/07/05 00:19:17;;;;;;;10.77;5.55;;;;;;;26.92;56.01;98637.69;2062082;28;20057;-49
2023/07/05 00:20:18;;;;;;;17.95;6.10;;;;;;;26.90;56.40;98632.47;2065159;28;20141;-55
2023/07/05 00:21:19;;;;;;;11.93;5.65;;;;;;;26.90;55.81;98635.22;2062090;28;20049;-51
2023/07/05 00:22:21;;;;;;;8.43;5.00;;;;;;;26.93;56.21;98633.88;2062141;28;20056;-56
2023/07/05 00:23:23;;;;;;;11.48;5.38;;;;;;;26.92;56.11;98630.34;2062281;28;20057;-47
2023/07/05 00:24:25;;;;;;;6.82;5.38;;;;;;;26.88;56.22;98636.53;2062199;28;20081;-48
2023/07/05 00:25:26;;;;;;;9.35;6.50;;;;;;;26.85;56.31;98637.88;2052492;28;20078;-46
2023/07/05 00:26:28;;;;;;;9.18;5.85;;;;;;;26.83;56.17;98636.50;2060419;28;20438;-50
2023/07/05 00:27:29;;;;;;;8.55;4.82;;;;;;;26.83;56.68;98631.91;2061303;28;20634;-49
2023/07/05 00:28:33;;;;;;;9.82;6.10;;;;;;;26.90;56.37;98637.13;2062652;28;20042;-47
2023/07/05 00:29:33;;;;;;;9.00;5.18;;;;;;;26.95;55.97;98640.69;2061991;28;20064;-48
2023/07/05 00:30:35;;;;;;;12.88;4.82;;;;;;;27.00;55.41;98636.41;2060895;28;20054;-49
2023/07/05 00:31:36;;;;;;;10.48;6.28;;;;;;;27.00;55.43;98630.97;2062502;28;20134;-47
2023/07/05 00:32:38;;;;;;;9.50;4.90;;;;;;;27.01;55.38;98629.88;2062914;28;20052;-47
2023/07/05 00:33:38;;;;;;;10.50;4.93;;;;;;;27.01;55.61;98629.88;2062579;28;20066;-48
2023/07/05 00:34:39;;;;;;;10.30;5.00;;;;;;;27.03;55.62;98628.53;2062750;28;20057;-47
2023/07/05 00:35:48;;;;;;;9.18;5.05;;;;;;;27.03;55.24;98628.53;2061573;28;20184;-47
2023/07/05 00:36:48;;;;;;;8.98;4.97;;;;;;;27.04;55.09;98626.63;2060658;28;20057;-48
2023/07/05 00:37:50;;;;;;;9.38;4.88;;;;;;;27.02;55.55;98626.06;2060965;28;20401;-51
2023/07/05 00:38:53;;;;;;;10.15;5.18;;;;;;;27.01;56.00;98627.16;2060444;28;20057;-49
2023/07/05 00:39:55;;;;;;;9.75;5.68;;;;;;;27.01;55.81;98633.41;2062522;28;20110;-48
2023/07/05 00:40:56;;;;;;;10.18;5.07;;;;;;;27.02;55.88;98629.59;2062923;28;20065;-48
2023/07/05 00:41:58;;;;;;;11.02;4.55;;;;;;;27.04;55.59;98632.06;2062606;28;20525;-46
2023/07/05 00:42:59;;;;;;;7.43;4.55;;;;;;;27.06;55.51;98635.34;2060474;28;20751;-50
2023/07/05 00:44:01;;;;;;;6.68;5.03;;;;;;;27.01;55.62;98633.41;2060827;28;20057;-50
2023/07/05 00:45:42;;;;;;;9.02;5.20;;;;;;;26.90;56.26;98637.13;2060595;28;20056;-50
2023/07/05 00:46:51;;;;;;;11.32;6.15;;;;;;;26.76;56.82;98630.44;2052396;28;20061;-46
2023/07/05 00:47:51;;;;;;;10.27;5.20;;;;;;;26.76;56.78;98625.81;2060081;28;20054;-48
2023/07/05 00:48:56;;;;;;;10.43;4.82;;;;;;;26.83;56.62;98629.16;2062991;28;20129;-48
2023/07/05 00:50:00;;;;;;;11.15;5.78;;;;;;;26.85;56.38;98624.28;2060509;28;20078;-48
2023/07/05 00:51:06;;;;;;;10.05;7.10;;;;;;;26.91;56.09;98619.69;2061692;28;20053;-49
2023/07/05 00:52:11;;;;;;;11.35;5.88;;;;;;;26.94;56.07;98617.28;2062471;28;20054;-50
2023/07/05 00:53:13;;;;;;;10.35;4.68;;;;;;;26.99;56.01;98615.69;2062397;28;20799;-50
2023/07/05 00:54:22;;;;;;;7.75;4.55;;;;;;;26.96;55.90;98619.75;2064611;28;20587;-49
2023/07/05 00:55:27;;;;;;;8.73;5.75;;;;;;;26.94;55.99;98611.84;2060520;28;20549;-47
2023/07/05 00:56:31;;;;;;;11.60;5.78;;;;;;;26.99;55.65;98610.25;2058132;28;20061;-50
2023/07/05 00:57:38;;;;;;;11.35;6.18;;;;;;;27.00;55.81;98617.34;2064903;28;20149;-49
2023/07/05 00:58:40;;;;;;;9.10;5.05;;;;;;;27.00;55.78;98610.00;2063499;28;20064;-48
2023/07/05 00:59:47;;;;;;;6.90;4.35;;;;;;;26.96;56.27;98606.94;2063357;28;20056;-50
2023/07/05 01:00:48;;;;;;;7.25;5.03;;;;;;;26.94;55.76;98602.84;2065400;28;20108;-49
2023/07/05 01:01:50;;;;;;;10.45;5.60;;;;;;;26.98;55.99;98600.44;2062302;28;20046;-50
2023/07/05 01:02:56;;;;;;;12.38;5.70;;;;;;;26.97;55.76;98599.63;2061784;28;20054;-51
2023/07/05 01:04:00;;;;;;;6.95;5.28;;;;;;;26.99;55.66;98602.06;2063017;28;20058;-50
2023/07/05 01:05:01;;;;;;;9.15;5.15;;;;;;;27.00;55.83;98592.84;2063242;28;20073;-47
2023/07/05 01:06:06;;;;;;;8.23;5.18;;;;;;;27.02;55.45;98596.09;2063564;28;20128;-52
2023/07/05 01:07:07;;;;;;;12.45;6.05;;;;;;;26.90;56.11;98597.09;2065019;28;20057;-49
2023/07/05 01:08:10;;;;;;;14.90;5.90;;;;;;;26.84;56.51;98589.97;2065650;28;21006;-47
2023/07/05 01:09:11;;;;;;;15.68;6.30;;;;;;;26.69;56.88;98593.41;2061566;28;20050;-49
2023/07/05 01:10:19;;;;;;;8.68;5.78;;;;;;;26.59;57.27;98596.00;2066164;28;20042;-47
2023/07/05 01:11:28;;;;;;;12.57;7.03;;;;;;;26.55;57.52;98597.63;2063200;28;20049;-52
2023/07/05 01:12:36;;;;;;;12.98;6.88;;;;;;;26.54;57.57;98600.56;2064936;28;20077;-50
2023/07/05 01:13:42;;;;;;;8.98;5.22;;;;;;;26.56;57.91;98601.16;2064267;28;20518;-50
2023/07/05 01:14:55;;;;;;;6.80;4.53;;;;;;;26.55;57.42;98594.91;2061485;28;20459;-48
2023/07/05 01:16:16;;;;;;;9.43;5.82;;;;;;;26.51;57.77;98597.28;2065839;28;20042;-48
2023/07/05 01:17:35;;;;;;;12.90;6.32;;;;;;;26.45;57.74;98594.75;2060809;28;20077;-48
2023/07/05 01:18:43;;;;;;;12.07;6.05;;;;;;;26.41;57.95;98591.72;2059564;28;20092;-49
2023/07/05 01:19:59;;;;;;;11.73;5.78;;;;;;;26.41;58.11;98601.75;2062601;28;20050;-51
2023/07/05 01:21:06;;;;;;;13.07;5.95;;;;;;;26.40;58.38;98600.94;2060757;28;20726;-49
2023/07/05 01:22:15;;;;;;;8.77;5.80;;;;;;;26.33;58.31;98594.91;2061890;28;20137;-49
2023/07/05 01:24:00;;;;;;;11.18;7.18;;;;;;;26.12;58.75;98591.13;2063515;28;20048;-53
2023/07/05 01:25:19;;;;;;;8.88;6.03;;;;;;;26.11;58.98;98602.25;2062944;28;20046;-54
2023/07/05 01:26:58;;;;;;;13.27;6.70;;;;;;;26.02;59.73;98600.00;2061375;28;20515;-49
2023/07/05 01:28:26;;;;;;;13.43;5.93;;;;;;;25.99;59.63;98600.50;2061651;28;20049;-50
2023/07/05 01:30:06;;;;;;;12.23;5.85;;;;;;;25.92;59.51;98599.84;2055125;28;20148;-49
2023/07/05 01:31:44;;;;;;;12.02;5.35;;;;;;;25.93;59.59;98604.19;2053953;28;20080;-48
2023/07/05 01:32:51;;;;;;;13.75;6.20;;;;;;;25.90;59.79;98607.44;2063353;28;21049;-54
2023/07/05 01:34:01;;;;;;;18.60;7.15;;;;;;;25.93;59.93;98614.25;2062499;28;20057;-51
2023/07/05 01:35:10;;;;;;;11.73;6.07;;;;;;;25.87;59.73;98607.94;2061690;28;20485;-52
2023/07/05 01:36:12;;;;;;;12.63;6.78;;;;;;;25.75;60.62;98609.94;2062931;28;20050;-51
2023/07/05 01:37:28;;;;;;;9.38;5.32;;;;;;;25.76;60.28;98614.28;2062636;28;20126;-47
2023/07/05 01:38:28;;;;;;;16.80;6.32;;;;;;;25.69;60.64;98610.94;2062259;28;20074;-50
2023/07/05 01:39:30;;;;;;;11.00;6.50;;;;;;;25.60;60.86;98605.94;2064337;28;20050;-51
2023/07/05 01:40:54;;;;;;;16.30;7.75;;;;;;;25.60;61.13;98607.81;2064849;28;20046;-52
2023/07/05 01:41:56;;;;;;;14.63;6.40;;;;;;;25.68;60.25;98612.00;2060125;28;20090;-48
2023/07/05 01:43:00;;;;;;;14.25;6.68;;;;;;;25.77;60.21;98614.03;2063171;28;20053;-49
2023/07/05 01:44:02;;;;;;;11.77;6.18;;;;;;;25.82;59.66;98605.09;2064983;28;20046;-51
2023/07/05 01:45:03;;;;;;;10.35;5.93;;;;;;;25.77;60.28;98603.16;2061482;28;20137;-50
2023/07/05 01:46:21;;;;;;;7.90;5.53;;;;;;;25.76;60.11;98606.13;2064506;28;20053;-50
2023/07/05 01:47:31;;;;;;;12.40;6.18;;;;;;;25.59;60.87;98612.41;2062565;28;20060;-55
2023/07/05 01:48:41;;;;;;;14.52;6.50;;;;;;;25.45;61.37;98605.69;2064924;28;20057;-50
2023/07/05 01:49:52;;;;;;;10.30;6.68;;;;;;;25.44;60.93;98614.91;2062354;28;20054;-50
2023/07/05 01:51:02;;;;;;;14.70;5.95;;;;;;;25.53;60.62;98616.13;2063557;28;20050;-50
2023/07/05 01:52:09;;;;;;;16.77;8.45;;;;;;;25.49;60.71;98615.00;2060349;28;20513;-47
2023/07/05 01:53:16;;;;;;;12.90;6.75;;;;;;;25.53;60.77;98613.41;2064186;28;20046;-54
2023/07/05 01:54:25;;;;;;;14.35;6.78;;;;;;;25.57;60.69;98619.97;2064545;28;20060;-48
2023/07/05 01:55:32;;;;;;;12.02;5.55;;;;;;;25.51;60.59;98614.75;2062928;28;20215;-54
2023/07/05 01:56:39;;;;;;;10.57;5.65;;;;;;;25.63;60.38;98623.59;2063715;28;20069;-52
2023/07/05 01:57:47;;;;;;;11.43;6.60;;;;;;;25.65;60.08;98621.44;2062536;28;20108;-48
2023/07/05 01:58:51;;;;;;;11.05;6.47;;;;;;;25.58;60.08;98610.78;2063059;28;20057;-54
2023/07/05 01:59:58;;;;;;;17.25;7.93;;;;;;;25.61;60.01;98612.19;2065291;28;20050;-47
2023/07/05 02:01:00;;;;;;;10.77;7.18;;;;;;;25.59;60.48;98623.28;2063735;28;20677;-51
2023/07/05 02:02:05;;;;;;;8.25;5.97;;;;;;;25.62;60.31;98617.34;2062328;28;20316;-52
2023/07/05 02:03:12;;;;;;;11.82;6.20;;;;;;;25.55;60.32;98616.72;2059663;28;20709;-52
2023/07/05 02:04:14;;;;;;;12.15;6.72;;;;;;;25.57;60.48;98622.69;2062541;28;20084;-52
2023/07/05 02:05:16;;;;;;;11.25;5.95;;;;;;;25.59;60.03;98617.84;2064159;28;20528;-48
2023/07/05 02:06:19;;;;;;;15.15;6.90;;;;;;;25.63;60.19;98629.88;2061644;28;20041;-47
2023/07/05 02:07:25;;;;;;;10.98;5.80;;;;;;;25.45;60.17;98619.28;2063664;28;20073;-52
2023/07/05 02:08:30;;;;;;;12.70;5.65;;;;;;;25.55;60.12;98621.31;2064958;28;20522;-55
2023/07/05 02:09:35;;;;;;;9.80;6.63;;;;;;;25.56;60.30;98620.25;2062342;28;20137;-50
2023/07/05 02:10:37;;;;;;;9.23;6.05;;;;;;;25.51;60.15;98614.75;2063362;28;20061;-51
2023/07/05 02:11:38;;;;;;;14.13;6.60;;;;;;;25.34;60.83;98622.91;2062583;28;20061;-46
2023/07/05 02:12:39;;;;;;;11.07;5.20;;;;;;;25.23;61.35;98623.81;2063089;28;20046;-50
2023/07/05 02:13:41;;;;;;;12.98;7.00;;;;;;;25.13;61.40;98614.41;2062263;28;20144;-51
2023/07/05 02:14:41;;;;;;;10.02;5.85;;;;;;;25.09;61.65;98621.41;2062475;28;20381;-51
2023/07/05 02:15:44;;;;;;;14.60;6.70;;;;;;;25.07;61.99;98618.09;2064077;28;20129;-51
2023/07/05 02:16:44;;;;;;;9.93;7.05;;;;;;;25.05;61.72;98612.13;2063115;28;20050;-46
2023/07/05 02:17:46;;;;;;;12.75;6.60;;;;;;;25.05;62.05;98620.25;2062795;28;20065;-52
2023/07/05 02:18:48;;;;;;;10.57;6.30;;;;;;;25.00;62.25;98620.16;2059541;28;20058;-52
2023/07/05 02:19:50;;;;;;;13.45;6.30;;;;;;;24.94;62.39;98616.53;2062383;28;20052;-51
2023/07/05 02:20:51;;;;;;;14.07;6.35;;;;;;;24.95;62.48;98620.06;2063011;28;20050;-55
2023/07/05 02:21:53;;;;;;;11.52;6.50;;;;;;;24.97;62.08;98612.53;2063858;28;20044;-47
2023/07/05 02:22:55;;;;;;;13.80;6.78;;;;;;;25.01;61.79;98615.56;2062964;28;20141;-48
2023/07/05 02:23:57;;;;;;;9.45;6.38;;;;;;;25.07;61.81;98615.38;2064757;28;20049;-55
2023/07/05 02:24:58;;;;;;;8.57;6.53;;;;;;;25.11;61.49;98615.72;2060936;28;20734;-51
2023/07/05 02:26:05;;;;;;;14.20;7.35;;;;;;;25.13;61.45;98608.16;2063669;28;20157;-49
2023/07/05 02:27:06;;;;;;;12.18;7.60;;;;;;;25.05;61.78;98616.72;2061489;28;20112;-50
2023/07/05 02:28:09;;;;;;;12.20;6.43;;;;;;;25.00;61.98;98606.59;2064862;28;20444;-52
2023/07/05 02:29:09;;;;;;;13.13;7.00;;;;;;;25.00;62.26;98608.50;2060575;28;20053;-51
2023/07/05 02:30:13;;;;;;;11.70;6.53;;;;;;;24.97;62.40;98607.91;2065079;28;20046;-49
2023/07/05 02:31:13;;;;;;;14.77;7.20;;;;;;;24.91;62.58;98608.09;2061796;28;20054;-51
2023/07/05 02:32:15;;;;;;;14.52;7.28;;;;;;;24.94;62.50;98615.72;2061736;28;20042;-53
2023/07/05 02:33:16;;;;;;;12.73;7.68;;;;;;;25.03;61.94;98613.44;2061077;28;20046;-54
2023/07/05 02:34:20;;;;;;;13.90;6.68;;;;;;;24.89;62.88;98615.63;2065283;28;20157;-51
2023/07/05 02:35:21;;;;;;;13.05;6.03;;;;;;;24.91;62.67;98619.75;2064014;28;20060;-46
2023/07/05 02:36:23;;;;;;;11.65;7.63;;;;;;;24.94;62.32;98611.13;2063911;28;20041;-55
2023/07/05 02:37:24;;;;;;;15.35;6.85;;;;;;;24.98;62.01;98619.59;2061413;28;20081;-48
2023/07/05 02:38:25;;;;;;;15.48;7.95;;;;;;;25.03;62.20;98614.25;2061761;28;20057;-47
2023/07/05 02:39:26;;;;;;;14.02;6.57;;;;;;;25.07;62.09;98620.00;2064237;28;20054;-56
2023/07/05 02:40:28;;;;;;;14.95;6.47;;;;;;;24.97;62.03;98617.94;2062174;28;20050;-49
2023/07/05 02:41:29;;;;;;;10.43;6.15;;;;;;;24.92;62.73;98617.84;2062701;28;20074;-48
2023/07/05 02:42:31;;;;;;;13.88;6.78;;;;;;;24.90;62.69;98623.50;2065246;28;20049;-56
2023/07/05 02:43:32;;;;;;;12.95;7.05;;;;;;;24.85;62.71;98606.31;2062560;28;20053;-53
2023/07/05 02:44:34;;;;;;;11.25;5.68;;;;;;;24.84;63.08;98612.84;2064383;28;20531;-55
2023/07/05 02:45:36;;;;;;;9.27;6.03;;;;;;;24.95;62.34;98611.94;2064942;28;20054;-52
2023/07/05 02:46:38;;;;;;;10.98;6.25;;;;;;;24.91;62.33;98614.31;2059448;28;20134;-50
2023/07/05 02:47:39;;;;;;;13.50;7.10;;;;;;;24.92;62.58;98607.00;2062849;28;20065;-52
2023/07/05 02:48:40;;;;;;;10.23;5.95;;;;;;;24.98;62.23;98611.44;2061024;28;20578;-51
2023/07/05 02:49:43;;;;;;;16.13;7.35;;;;;;;24.91;62.70;98610.78;2061366;28;20041;-47
2023/07/05 02:50:45;;;;;;;9.73;6.43;;;;;;;24.83;62.90;98609.31;2061751;28;20045;-53
2023/07/05 02:51:45;;;;;;;15.20;8.02;;;;;;;24.70;63.43;98609.59;2062291;28;20057;-51
2023/07/05 02:52:47;;;;;;;12.18;5.97;;;;;;;24.66;63.65;98609.28;2063138;28;20686;-48
2023/07/05 02:53:48;;;;;;;11.23;6.07;;;;;;;24.70;63.59;98606.91;2063959;28;20524;-49
2023/07/05 02:54:50;;;;;;;13.27;6.70;;;;;;;24.71;63.47;98606.66;2063240;28;20057;-49
2023/07/05 02:55:51;;;;;;;8.80;6.32;;;;;;;24.83;62.54;98603.06;2062302;28;20068;-50
2023/07/05 02:56:53;;;;;;;9.23;6.60;;;;;;;24.89;62.62;98602.88;2062438;28;20056;-48
2023/07/05 02:57:53;;;;;;;10.18;5.18;;;;;;;24.96;62.27;98603.56;2061914;28;20050;-49
2023/07/05 02:58:55;;;;;;;9.07;5.75;;;;;;;25.06;62.00;98602.91;2063069;28;20050;-48
2023/07/05 02:59:56;;;;;;;13.32;7.00;;;;;;;25.11;61.69;98599.44;2063396;28;20054;-48
2023/07/05 03:00:58;;;;;;;9.85;5.80;;;;;;;24.97;62.06;98599.78;2062074;28;20121;-49
2023/07/05 03:01:59;;;;;;;12.70;6.53;;;;;;;25.02;61.78;98601.75;2063032;28;20053;-48
2023/07/05 03:03:00;;;;;;;13.55;6.93;;;;;;;25.07;62.04;98607.25;2066085;28;20120;-48
2023/07/05 03:04:01;;;;;;;12.48;6.60;;;;;;;24.97;61.97;98607.09;2062965;28;20053;-48
2023/07/05 03:05:09;;;;;;;10.85;6.65;;;;;;;24.94;62.44;98608.41;2059672;28;20740;-52
2023/07/05 03:06:10;;;;;;;11.02;5.93;;;;;;;25.03;62.05;98608.00;2061811;28;20162;-50
2023/07/05 03:07:11;;;;;;;9.20;6.00;;;;;;;25.09;61.47;98607.00;2061924;28;20647;-48
2023/07/05 03:08:12;;;;;;;13.15;6.25;;;;;;;25.11;61.79;98605.69;2062337;28;21255;-49
2023/07/05 03:09:14;;;;;;;10.07;6.10;;;;;;;25.15;61.61;98606.84;2060141;28;20133;-48
2023/07/05 03:10:15;;;;;;;10.77;6.00;;;;;;;25.18;61.16;98613.69;2064207;28;20559;-48
2023/07/05 03:11:17;;;;;;;9.88;5.90;;;;;;;25.23;60.89;98610.25;2061659;28;20047;-58
2023/07/05 03:12:20;;;;;;;8.02;5.50;;;;;;;25.22;61.51;98611.31;2064223;28;20045;-47
2023/07/05 03:13:22;;;;;;;9.00;5.38;;;;;;;25.25;60.90;98611.66;2052236;28;20050;-47
2023/07/05 03:14:23;;;;;;;14.63;6.55;;;;;;;25.28;60.98;98610.31;2062834;28;20049;-50
2023/07/05 03:15:24;;;;;;;13.18;6.32;;;;;;;25.24;61.17;98611.88;2063694;28;20699;-48
2023/07/05 03:16:25;;;;;;;21.45;6.78;;;;;;;25.09;61.63;98609.72;2062073;28;20046;-49
2023/07/05 03:17:27;;;;;;;12.48;5.55;;;;;;;25.01;62.03;98610.94;2064795;28;20056;-49
2023/07/05 03:18:28;;;;;;;9.10;6.50;;;;;;;24.87;62.73;98610.44;2060482;28;20046;-47
2023/07/05 03:19:30;;;;;;;15.00;6.53;;;;;;;24.91;62.46;98610.78;2064283;28;20053;-47
2023/07/05 03:20:33;;;;;;;15.57;7.20;;;;;;;24.91;62.50;98611.63;2061479;28;20050;-51
2023/07/05 03:21:34;;;;;;;8.27;6.10;;;;;;;24.93;62.36;98616.78;2062685;28;21235;-47
2023/07/05 03:22:35;;;;;;;14.40;6.32;;;;;;;25.01;62.18;98610.13;2061816;28;20520;-53
2023/07/05 03:23:37;;;;;;;9.07;5.88;;;;;;;25.10;61.78;98614.91;2061141;28;20133;-46
2023/07/05 03:24:38;;;;;;;10.35;5.55;;;;;;;25.11;61.33;98611.13;2061503;28;20076;-50
2023/07/05 03:25:40;;;;;;;9.85;6.20;;;;;;;25.06;61.90;98613.75;2061706;28;20488;-49
2023/07/05 03:26:41;;;;;;;10.77;6.30;;;;;;;25.11;61.62;98616.56;2064027;28;20077;-51
2023/07/05 03:27:43;;;;;;;9.80;5.47;;;;;;;25.16;61.05;98619.38;2063570;28;20072;-50
2023/07/05 03:28:44;;;;;;;10.35;5.78;;;;;;;25.18;61.60;98613.69;2063239;28;20049;-50
2023/07/05 03:29:45;;;;;;;9.88;5.30;;;;;;;25.12;61.73;98615.47;2061426;28;20100;-48
2023/07/05 03:30:55;;;;;;;13.35;6.32;;;;;;;25.06;61.82;98613.75;2062353;28;20061;-51
2023/07/05 03:31:57;;;;;;;12.23;6.25;;;;;;;24.89;62.14;98613.75;2062808;28;20069;-51
2023/07/05 03:32:58;;;;;;;12.82;6.05;;;;;;;24.94;62.16;98608.41;2063129;28;20046;-50
2023/07/05 03:33:59;;;;;;;13.52;6.57;;;;;;;24.94;62.40;98611.13;2063081;28;20057;-53
2023/07/05 03:35:01;;;;;;;12.82;7.90;;;;;;;24.89;62.39;98613.75;2062764;28;20152;-48
2023/07/05 03:36:06;;;;;;;14.32;6.30;;;;;;;24.87;62.66;98610.44;2064413;28;20054;-50
2023/07/05 03:37:08;;;;;;;15.35;6.85;;;;;;;24.84;62.22;98610.94;2060932;28;20129;-49
2023/07/05 03:38:09;;;;;;;12.35;6.40;;;;;;;24.81;62.60;98599.75;2061647;28;20050;-49
2023/07/05 03:39:11;;;;;;;10.18;7.57;;;;;;;24.67;63.39;98601.97;2061638;28;20508;-51
2023/07/05 03:40:12;;;;;;;14.52;6.88;;;;;;;24.63;63.42;98600.81;2061551;28;20085;-49
2023/07/05 03:41:16;;;;;;;12.57;6.53;;;;;;;24.71;63.12;98600.38;2063720;28;20045;-49
2023/07/05 03:42:17;;;;;;;14.80;7.20;;;;;;;24.65;63.08;98602.19;2061734;28;20086;-47
2023/07/05 03:43:19;;;;;;;14.50;7.05;;;;;;;24.63;63.48;98603.53;2061623;28;20578;-48
2023/07/05 03:44:22;;;;;;;16.13;6.65;;;;;;;24.58;63.23;98603.44;2060370;28;20049;-47
2023/07/05 03:45:24;;;;;;;10.48;5.57;;;;;;;24.66;62.86;98606.56;2061520;28;20054;-51
2023/07/05 03:46:24;;;;;;;8.70;6.50;;;;;;;24.80;62.85;98603.56;2058830;28;20618;-50
2023/07/05 03:47:28;;;;;;;13.10;6.43;;;;;;;24.91;61.90;98608.09;2062241;28;20128;-48
2023/07/05 03:48:30;;;;;;;12.60;6.63;;;;;;;25.00;61.91;98609.31;2062993;28;20042;-48
2023/07/05 03:49:32;;;;;;;7.53;5.10;;;;;;;25.09;61.39;98615.97;2060639;28;20589;-49
2023/07/05 03:50:34;;;;;;;11.35;5.93;;;;;;;25.17;61.46;98612.88;2060241;28;20074;-52
2023/07/05 03:51:38;;;;;;;9.43;6.40;;;;;;;25.25;61.17;98614.34;2063321;28;20544;-49
2023/07/05 03:52:38;;;;;;;8.85;5.07;;;;;;;25.32;60.36;98616.88;2061903;28;20046;-51
2023/07/05 03:53:41;;;;;;;17.38;5.82;;;;;;;25.37;60.23;98615.06;2063163;28;20837;-55
2023/07/05 03:54:41;;;;;;;10.48;5.72;;;;;;;25.42;60.17;98619.78;2061164;28;20041;-53
2023/07/05 03:55:43;;;;;;;16.00;6.35;;;;;;;25.43;60.16;98618.69;2062374;28;20466;-47
2023/07/05 03:56:44;;;;;;;10.57;5.90;;;;;;;25.45;60.11;98613.03;2062887;28;20042;-53
2023/07/05 03:57:46;;;;;;;12.50;5.07;;;;;;;25.49;59.79;98612.28;2062264;28;20161;-54
2023/07/05 03:58:47;;;;;;;10.05;5.15;;;;;;;25.51;59.82;98620.97;2059265;28;20592;-50
2023/07/05 03:59:49;;;;;;;10.88;5.72;;;;;;;25.51;59.74;98625.59;2062129;28;20042;-50
2023/07/05 04:00:50;;;;;;;11.15;6.60;;;;;;;25.49;60.18;98617.72;2061603;28;20136;-54
2023/07/05 04:01:52;;;;;;;8.95;5.53;;;;;;;25.53;59.96;98620.75;2062477;28;20056;-55
2023/07/05 04:02:53;;;;;;;10.95;5.20;;;;;;;25.47;59.76;98614.41;2061153;28;20508;-52
2023/07/05 04:03:57;;;;;;;9.13;5.80;;;;;;;25.47;60.30;98619.84;2059868;28;20052;-55
2023/07/05 04:04:58;;;;;;;11.95;4.97;;;;;;;25.46;60.30;98617.38;2062021;28;20046;-56
2023/07/05 04:05:59;;;;;;;9.85;5.80;;;;;;;25.41;60.47;98613.53;2061422;28;20052;-52
2023/07/05 04:07:02;;;;;;;10.55;6.88;;;;;;;25.45;60.34;98615.75;2059812;28;20050;-51
2023/07/05 04:08:04;;;;;;;12.38;5.65;;;;;;;25.47;59.85;98619.03;2060169;28;20091;-50
2023/07/05 04:09:05;;;;;;;12.18;5.70;;;;;;;25.49;59.81;98619.59;2060694;28;20049;-54
2023/07/05 04:10:07;;;;;;;12.40;5.55;;;;;;;25.55;60.04;98618.63;2061201;28;20592;-49
2023/07/05 04:11:09;;;;;;;6.78;4.68;;;;;;;25.58;59.37;98624.38;2061721;28;20045;-49
2023/07/05 04:12:12;;;;;;;12.10;5.88;;;;;;;25.60;59.59;98629.53;2061961;28;20054;-47
2023/07/05 04:13:12;;;;;;;10.75;5.82;;;;;;;25.61;59.37;98628.47;2062539;28;20046;-55
2023/07/05 04:14:14;;;;;;;8.20;5.70;;;;;;;25.64;59.69;98625.25;2052636;28;20487;-49
2023/07/05 04:15:15;;;;;;;9.55;5.00;;;;;;;25.66;59.32;98631.28;2059030;28;20053;-52
2023/07/05 04:16:19;;;;;;;8.40;5.43;;;;;;;25.69;59.62;98632.66;2062272;28;20165;-57
2023/07/05 04:17:20;;;;;;;9.48;5.50;;;;;;;25.68;59.12;98628.28;2061658;28;20137;-52
2023/07/05 04:18:22;;;;;;;10.30;5.25;;;;;;;25.66;59.22;98638.56;2060214;28;20077;-51
2023/07/05 04:19:23;;;;;;;8.00;5.47;;;;;;;25.65;59.56;98629.59;2060057;28;20057;-53
2023/07/05 04:20:30;;;;;;;10.38;6.55;;;;;;;25.66;59.44;98638.56;2062875;28;20491;-49
2023/07/05 04:21:31;;;;;;;10.27;6.75;;;;;;;25.64;59.78;98631.50;2061161;28;20072;-49
2023/07/05 04:22:36;;;;;;;10.60;5.35;;;;;;;25.69;59.46;98628.06;2060621;28;20049;-51
2023/07/05 04:23:39;;;;;;;10.32;5.32;;;;;;;25.73;59.37;98631.06;2061843;28;20690;-52
2023/07/05 04:24:41;;;;;;;11.10;5.32;;;;;;;25.75;59.35;98637.09;2061663;28;20074;-46
2023/07/05 04:25:41;;;;;;;11.05;6.05;;;;;;;25.78;59.35;98634.69;2056025;28;20050;-46
2023/07/05 04:26:43;;;;;;;9.38;4.90;;;;;;;25.80;59.01;98637.16;2062292;28;20147;-46
2023/07/05 04:27:44;;;;;;;7.43;4.53;;;;;;;25.80;58.91;98634.44;2062635;28;20056;-49
2023/07/05 04:28:46;;;;;;;9.52;5.40;;;;;;;25.83;58.96;98633.97;2061170;28;20212;-49
2023/07/05 04:29:47;;;;;;;13.10;6.22;;;;;;;25.80;58.86;98629.84;2061734;28;20061;-55
2023/07/05 04:30:49;;;;;;;6.78;5.00;;;;;;;25.82;58.76;98632.28;2060332;28;20169;-52
2023/07/05 04:31:50;;;;;;;9.52;5.18;;;;;;;25.84;58.71;98633.72;2061927;28;20606;-52
2023/07/05 04:32:51;;;;;;;9.98;5.07;;;;;;;25.84;58.85;98633.72;2063055;28;20046;-53
2023/07/05 04:33:52;;;;;;;8.25;5.47;;;;;;;25.87;58.58;98635.09;2062731;28;20057;-55
2023/07/05 04:34:54;;;;;;;8.02;4.82;;;;;;;25.90;58.33;98636.50;2062782;28;20491;-50
2023/07/05 04:35:57;;;;;;;7.68;5.05;;;;;;;25.93;58.38;98634.09;2062953;28;20050;-52
2023/07/05 04:36:59;;;;;;;8.13;5.13;;;;;;;25.94;58.63;98637.66;2060909;28;21260;-52
2023/07/05 04:38:01;;;;;;;6.80;4.82;;;;;;;25.96;58.52;98630.88;2064779;28;20532;-51
2023/07/05 04:39:03;;;;;;;11.23;5.15;;;;;;;25.97;58.37;98646.13;2063990;28;20099;-56
2023/07/05 04:40:05;;;;;;;9.93;5.35;;;;;;;25.97;57.90;98632.53;2060750;28;20045;-53
2023/07/05 04:41:07;;;;;;;13.80;5.50;;;;;;;25.97;58.02;98631.72;2062237;28;20045;-52
2023/07/05 04:42:08;;;;;;;6.90;4.78;;;;;;;25.96;58.35;98627.34;2063071;28;20053;-49
2023/07/05 04:43:10;;;;;;;6.22;4.57;;;;;;;25.98;58.01;98631.44;2059690;28;20054;-51
2023/07/05 04:44:10;;;;;;;5.88;4.85;;;;;;;26.00;58.11;98632.03;2062052;28;20052;-50
2023/07/05 04:45:12;;;;;;;9.90;5.65;;;;;;;25.94;58.48;98627.59;2060576;28;20042;-48
2023/07/05 04:46:13;;;;;;;10.55;5.70;;;;;;;25.93;58.56;98630.56;2060707;28;20622;-52
2023/07/05 04:47:16;;;;;;;11.75;5.57;;;;;;;25.92;58.48;98631.66;2060949;28;20058;-51
2023/07/05 04:48:17;;;;;;;11.48;5.97;;;;;;;25.92;58.24;98632.47;2060564;28;20046;-52
2023/07/05 04:49:19;;;;;;;14.07;6.25;;;;;;;25.87;58.57;98629.66;2064027;28;20049;-47
2023/07/05 04:50:20;;;;;;;8.50;5.20;;;;;;;25.81;59.14;98633.38;2063685;28;20073;-52
2023/07/05 04:51:21;;;;;;;9.05;4.80;;;;;;;25.80;59.23;98629.00;2060942;28;20061;-53
2023/07/05 04:52:22;;;;;;;10.45;5.85;;;;;;;25.77;58.71;98627.63;2062690;28;20129;-54
2023/07/05 04:53:28;;;;;;;7.65;5.07;;;;;;;25.81;59.29;98630.66;2061702;28;20058;-48
2023/07/05 04:54:28;;;;;;;10.77;5.05;;;;;;;25.87;58.96;98623.41;2062832;28;20076;-54
2023/07/05 04:55:30;;;;;;;8.52;5.65;;;;;;;25.87;58.91;98626.94;2062459;28;20050;-49
2023/07/05 04:56:31;;;;;;;9.32;5.68;;;;;;;25.87;58.71;98634.28;2058516;28;20053;-49
2023/07/05 04:57:33;;;;;;;9.35;4.90;;;;;;;25.84;59.08;98625.56;2061948;28;20087;-51
2023/07/05 04:58:33;;;;;;;12.65;5.75;;;;;;;25.87;59.19;98626.13;2062478;28;20151;-50